Time;durP1;ratioP1;P1;durP2;ratioP2;P2;SDS_P1;SDS_P2;PMS_P1;PMS_P2;Temp;Humidity;BMP_temperature;BMP_pressure;BME280_temperature;BME280_humidity;BME280_pressure;Samples;Min_cycle;Max_cycle;Signal;HPM_P1;HPM_P2
2023/08/02 00:01:03;;;;;;;5.40;2.37;;;16.10;99.90;;;;;;4951583;28;20507;-88
2023/08/02 00:03:28;;;;;;;6.70;2.40;;;16.20;99.90;;;;;;4951948;28;20416;-87
2023/08/02 00:05:56;;;;;;;7.00;2.70;;;16.10;99.90;;;;;;4951270;28;20423;-87
2023/08/02 00:08:23;;;;;;;5.88;2.33;;;16.10;99.90;;;;;;4952566;28;20964;-86
2023/08/02 00:10:49;;;;;;;5.68;2.30;;;16.10;99.90;;;;;;4951315;28;20426;-87
2023/08/02 00:13:14;;;;;;;3.60;2.08;;;16.10;99.90;;;;;;4952086;28;20420;-87
2023/08/02 00:15:41;;;;;;;5.07;2.40;;;16.10;99.90;;;;;;4935788;28;20467;-87
2023/08/02 00:18:07;;;;;;;6.47;2.73;;;16.10;99.90;;;;;;4935245;28;20911;-86
2023/08/02 00:20:32;;;;;;;5.60;2.47;;;16.10;99.90;;;;;;4935916;28;20396;-87
2023/08/02 00:22:58;;;;;;;6.82;2.47;;;16.10;99.90;;;;;;4934864;28;20419;-87
2023/08/02 00:25:24;;;;;;;8.67;3.07;;;16.20;99.90;;;;;;4952049;28;20797;-87
2023/08/02 00:27:49;;;;;;;7.03;3.00;;;16.00;99.90;;;;;;4950260;28;21185;-87
2023/08/02 00:30:15;;;;;;;7.63;3.30;;;16.00;99.90;;;;;;4951611;28;21071;-87
2023/08/02 00:32:45;;;;;;;6.20;3.17;;;16.00;99.90;;;;;;4950949;28;20412;-87
2023/08/02 00:35:11;;;;;;;7.33;3.80;;;16.00;99.90;;;;;;4935265;28;20415;-87
2023/08/02 00:37:37;;;;;;;7.43;3.92;;;16.00;99.90;;;;;;4935361;28;20404;-87
2023/08/02 00:40:03;;;;;;;10.38;3.95;;;16.40;99.90;;;;;;4950512;28;20825;-86
2023/08/02 00:42:29;;;;;;;9.52;4.57;;;16.00;99.90;;;;;;4950684;28;20405;-87
2023/08/02 00:44:55;;;;;;;7.13;4.50;;;16.20;99.90;;;;;;4950722;28;20495;-87
2023/08/02 00:47:21;;;;;;;12.00;5.35;;;16.00;99.90;;;;;;4935392;28;20412;-87
2023/08/02 00:49:47;;;;;;;8.60;4.55;;;16.10;99.90;;;;;;4950305;28;20462;-86
2023/08/02 00:52:13;;;;;;;8.45;4.82;;;16.40;99.90;;;;;;4935376;28;20912;-87
2023/08/02 00:54:41;;;;;;;11.00;5.47;;;16.00;99.90;;;;;;4950693;28;20447;-86
2023/08/02 00:57:10;;;;;;;7.97;5.07;;;16.00;99.90;;;;;;4950239;28;20618;-87
2023/08/02 00:59:38;;;;;;;7.50;4.80;;;16.10;99.90;;;;;;4934659;28;20450;-87
2023/08/02 01:02:06;;;;;;;8.50;5.00;;;16.10;99.90;;;;;;4934047;28;20405;-87
2023/08/02 01:04:32;;;;;;;9.93;6.00;;;16.10;99.90;;;;;;4935478;28;20420;-87
2023/08/02 01:07:04;;;;;;;11.40;5.50;;;16.30;99.90;;;;;;4933981;28;20424;-86
2023/08/02 01:09:43;;;;;;;9.38;5.90;;;16.10;99.90;;;;;;4950656;28;20467;-87
2023/08/02 01:12:13;;;;;;;9.63;5.47;;;16.10;99.90;;;;;;4934554;28;20431;-87
2023/08/02 01:14:41;;;;;;;7.90;5.65;;;16.20;99.90;;;;;;4950135;28;20424;-86
2023/08/02 01:17:09;;;;;;;9.85;5.45;;;16.10;99.90;;;;;;4934794;28;20431;-87
2023/08/02 01:19:34;;;;;;;14.95;6.18;;;16.30;99.90;;;;;;4934245;28;20427;-86
2023/08/02 01:22:00;;;;;;;11.43;6.17;;;16.40;99.90;;;;;;4950887;28;20409;-86
2023/08/02 01:24:34;;;;;;;14.85;7.03;;;16.30;99.90;;;;;;4950109;28;20462;-86
2023/08/02 01:27:08;;;;;;;13.30;7.63;;;15.90;99.90;;;;;;4949863;28;20518;-86
2023/08/02 01:29:37;;;;;;;11.45;7.80;;;16.00;99.90;;;;;;4950087;28;20498;-86
2023/08/02 01:32:05;;;;;;;10.75;7.25;;;16.00;99.90;;;;;;4933860;28;20455;-86
2023/08/02 01:34:31;;;;;;;13.00;7.65;;;16.00;99.90;;;;;;4950938;28;20432;-86
2023/08/02 01:36:57;;;;;;;12.93;7.45;;;16.00;99.90;;;;;;4933263;28;20408;-87
2023/08/02 01:39:22;;;;;;;10.77;6.82;;;16.10;99.90;;;;;;4934659;28;20559;-86
2023/08/02 01:41:48;;;;;;;11.60;7.33;;;16.10;99.90;;;;;;4933669;28;20894;-87
2023/08/02 01:44:13;;;;;;;11.70;7.60;;;16.10;99.90;;;;;;4934315;28;20416;-87
2023/08/02 01:46:39;;;;;;;12.88;8.05;;;16.00;99.90;;;;;;4934138;28;20413;-87
2023/08/02 01:49:04;;;;;;;12.93;7.30;;;16.00;99.90;;;;;;4933357;28;20999;-86
2023/08/02 01:51:30;;;;;;;10.38;7.43;;;16.10;99.90;;;;;;4934400;28;20499;-87
2023/08/02 01:53:56;;;;;;;12.47;7.27;;;16.10;99.90;;;;;;4933271;28;20428;-87
2023/08/02 01:56:21;;;;;;;12.23;6.95;;;16.10;99.90;;;;;;4950820;28;20408;-88
2023/08/02 01:58:47;;;;;;;13.87;7.33;;;16.10;99.90;;;;;;4949571;28;20412;-87
2023/08/02 02:01:13;;;;;;;10.55;6.65;;;16.00;99.90;;;;;;4949999;28;20547;-87
2023/08/02 02:03:38;;;;;;;12.40;7.13;;;16.10;99.90;;;;;;4950135;28;20470;-86
2023/08/02 02:06:04;;;;;;;12.63;7.32;;;16.10;99.90;;;;;;4933298;28;20413;-87
2023/08/02 02:08:30;;;;;;;14.27;7.67;;;16.40;99.90;;;;;;4949643;28;20419;-86
2023/08/02 02:10:55;;;;;;;10.32;6.40;;;16.00;99.90;;;;;;4949034;28;20412;-87
2023/08/02 02:13:23;;;;;;;10.97;7.30;;;16.10;99.90;;;;;;4933852;28;20934;-87
2023/08/02 02:15:48;;;;;;;10.73;6.63;;;16.10;99.90;;;;;;4933184;28;20815;-87
2023/08/02 02:18:14;;;;;;;9.63;7.77;;;16.30;99.90;;;;;;4934093;28;20412;-86
2023/08/02 02:20:40;;;;;;;10.65;7.15;;;16.00;99.90;;;;;;4933152;28;20404;-87
2023/08/02 02:23:05;;;;;;;13.83;7.43;;;16.00;99.90;;;;;;4932984;28;20435;-85
2023/08/02 02:25:31;;;;;;;11.95;7.28;;;16.00;99.90;;;;;;4933491;28;20783;-87
2023/08/02 02:27:57;;;;;;;12.27;6.67;;;16.00;99.90;;;;;;4932867;28;20442;-88
2023/08/02 02:30:22;;;;;;;13.13;7.50;;;16.00;99.90;;;;;;4933908;28;20476;-87
2023/08/02 02:32:48;;;;;;;14.53;7.43;;;16.20;99.90;;;;;;4932659;28;21323;-87
2023/08/02 02:35:14;;;;;;;13.25;7.85;;;16.00;99.90;;;;;;4933893;28;20479;-87
2023/08/02 02:37:40;;;;;;;13.03;8.13;;;16.00;99.90;;;;;;4932919;28;21178;-87
2023/08/02 02:40:07;;;;;;;15.10;8.50;;;15.80;99.90;;;;;;4949672;28;20737;-87
2023/08/02 02:42:32;;;;;;;14.38;8.40;;;16.00;99.90;;;;;;4949727;28;20931;-87
2023/08/02 02:44:58;;;;;;;12.50;7.50;;;16.00;99.90;;;;;;4933166;28;20452;-87
2023/08/02 02:47:23;;;;;;;12.53;7.27;;;16.00;99.90;;;;;;4949520;28;20408;-87
2023/08/02 02:49:49;;;;;;;13.40;8.20;;;16.00;99.90;;;;;;4948616;28;20436;-87
2023/08/02 02:52:15;;;;;;;13.90;7.80;;;16.80;99.90;;;;;;4949661;28;20420;-87
2023/08/02 02:54:40;;;;;;;13.57;7.60;;;16.00;99.90;;;;;;4949119;28;20455;-86
2023/08/02 02:57:06;;;;;;;13.13;7.95;;;16.00;99.90;;;;;;4933835;28;20408;-88
2023/08/02 02:59:34;;;;;;;17.77;8.55;;;16.00;99.90;;;;;;4932856;28;20420;-86
2023/08/02 03:02:00;;;;;;;13.25;8.23;;;16.00;99.90;;;;;;4933470;28;20757;-88
2023/08/02 03:04:26;;;;;;;14.13;7.43;;;16.00;99.90;;;;;;4934492;28;20415;-87
2023/08/02 03:06:52;;;;;;;12.17;7.60;;;16.00;99.90;;;;;;4936415;28;20404;-87
2023/08/02 03:09:18;;;;;;;11.45;7.30;;;16.00;99.90;;;;;;4937035;28;20465;-88
2023/08/02 03:11:44;;;;;;;14.10;7.88;;;16.00;99.90;;;;;;4936305;28;20483;-87
2023/08/02 03:14:09;;;;;;;14.50;8.10;;;16.00;99.90;;;;;;4937435;28;21035;-87
2023/08/02 03:16:35;;;;;;;15.87;8.37;;;16.20;99.90;;;;;;4936157;28;20470;-86
2023/08/02 03:19:01;;;;;;;16.30;8.10;;;16.00;99.90;;;;;;4952031;28;20412;-87
2023/08/02 03:21:26;;;;;;;12.60;8.10;;;16.00;99.90;;;;;;4936268;28;20779;-86
2023/08/02 03:23:52;;;;;;;15.65;8.20;;;15.90;99.90;;;;;;4935002;28;20416;-87
2023/08/02 03:26:18;;;;;;;17.03;8.07;;;16.00;99.90;;;;;;4936187;28;20423;-86
2023/08/02 03:28:44;;;;;;;20.23;8.73;;;16.10;99.90;;;;;;4950694;28;20440;-87
2023/08/02 03:31:09;;;;;;;17.33;8.27;;;15.90;99.90;;;;;;4952205;28;20416;-87
2023/08/02 03:33:35;;;;;;;14.87;9.30;;;16.00;99.90;;;;;;4935846;28;20440;-86
2023/08/02 03:36:01;;;;;;;16.95;8.80;;;16.00;99.90;;;;;;4952782;28;20811;-87
2023/08/02 03:38:26;;;;;;;18.80;9.07;;;16.10;99.90;;;;;;4952371;28;20416;-87
2023/08/02 03:40:53;;;;;;;16.85;8.07;;;16.00;99.90;;;;;;4936175;28;20817;-87
2023/08/02 03:43:18;;;;;;;18.35;8.70;;;16.10;99.90;;;;;;4936290;28;20420;-87
2023/08/02 03:45:44;;;;;;;15.17;8.43;;;15.90;99.90;;;;;;4935853;28;20407;-86
2023/08/02 03:48:09;;;;;;;13.05;7.97;;;15.80;99.90;;;;;;4936728;28;20416;-87
2023/08/02 03:50:35;;;;;;;14.87;8.57;;;15.80;99.90;;;;;;4951977;28;20439;-86
2023/08/02 03:53:01;;;;;;;16.63;8.50;;;15.80;99.90;;;;;;4952822;28;20408;-87
2023/08/02 03:55:26;;;;;;;17.70;8.43;;;15.80;99.90;;;;;;4935913;28;20511;-86
2023/08/02 03:57:52;;;;;;;17.20;8.33;;;16.00;99.90;;;;;;4951682;28;21264;-87
2023/08/02 04:00:18;;;;;;;18.90;9.47;;;16.00;99.90;;;;;;4935945;28;20715;-86
2023/08/02 04:02:44;;;;;;;19.58;9.20;;;15.80;99.90;;;;;;4935828;28;20840;-87
2023/08/02 04:05:10;;;;;;;18.30;9.40;;;15.90;99.90;;;;;;4936040;28;20474;-87
2023/08/02 04:07:36;;;;;;;20.35;9.43;;;15.80;99.90;;;;;;4951531;28;20415;-87
2023/08/02 04:10:02;;;;;;;21.92;9.82;;;16.20;99.90;;;;;;4935939;28;20564;-86
2023/08/02 04:12:28;;;;;;;19.92;9.57;;;15.80;99.90;;;;;;4951124;28;20958;-86
2023/08/02 04:14:54;;;;;;;20.10;9.20;;;15.80;99.90;;;;;;4951897;28;20456;-87
2023/08/02 04:17:20;;;;;;;21.10;9.38;;;15.80;99.90;;;;;;4935405;28;20455;-87
2023/08/02 04:19:46;;;;;;;18.07;9.67;;;15.80;99.90;;;;;;4935468;28;20439;-88
2023/08/02 04:22:11;;;;;;;18.90;10.13;;;15.80;99.90;;;;;;4935903;28;20411;-87
2023/08/02 04:24:37;;;;;;;19.45;9.20;;;16.10;99.90;;;;;;4935202;28;20760;-87
2023/08/02 04:27:04;;;;;;;20.42;9.60;;;16.00;99.90;;;;;;4935516;28;20416;-87
2023/08/02 04:29:29;;;;;;;19.02;9.25;;;15.80;99.90;;;;;;4935039;28;20462;-87
2023/08/02 04:31:55;;;;;;;22.13;9.70;;;15.80;99.90;;;;;;4952445;28;20416;-87
2023/08/02 04:34:21;;;;;;;21.95;10.07;;;15.80;99.90;;;;;;4950681;28;20431;-87
2023/08/02 04:36:46;;;;;;;19.03;8.97;;;15.90;99.90;;;;;;4951767;28;20970;-87
2023/08/02 04:39:12;;;;;;;22.60;9.55;;;15.80;99.90;;;;;;4935406;28;20412;-86
2023/08/02 04:41:37;;;;;;;20.33;9.53;;;16.10;99.90;;;;;;4951059;28;20982;-86
2023/08/02 04:44:03;;;;;;;21.52;8.95;;;15.80;99.90;;;;;;4935352;28;20418;-87
2023/08/02 04:46:29;;;;;;;19.83;9.70;;;15.80;99.90;;;;;;4950192;28;20447;-86
2023/08/02 04:48:55;;;;;;;21.67;9.88;;;16.20;99.90;;;;;;4935779;28;20428;-87
2023/08/02 04:51:21;;;;;;;20.63;9.90;;;15.80;99.90;;;;;;4932307;28;20436;-87
2023/08/02 04:53:49;;;;;;;21.40;9.67;;;15.80;99.90;;;;;;4951147;28;20471;-87
2023/08/02 04:56:16;;;;;;;20.55;9.25;;;15.80;99.90;;;;;;4950498;28;20408;-87
2023/08/02 04:58:42;;;;;;;19.42;9.85;;;15.80;99.90;;;;;;4940816;28;20412;-88
2023/08/02 05:01:08;;;;;;;18.97;9.07;;;15.80;99.90;;;;;;4921978;28;20400;-87
2023/08/02 05:03:34;;;;;;;22.02;9.38;;;15.80;99.90;;;;;;4915368;29;20805;-87
2023/08/02 05:06:05;;;;;;;20.02;9.13;;;15.80;99.90;;;;;;4916013;29;20458;-87
2023/08/02 05:08:32;;;;;;;18.48;8.63;;;15.80;99.90;;;;;;4930765;29;20731;-86
2023/08/02 05:10:58;;;;;;;18.83;9.23;;;15.80;99.90;;;;;;4916258;29;20806;-87
2023/08/02 05:13:27;;;;;;;20.38;9.55;;;15.80;99.90;;;;;;4914751;29;20421;-87
2023/08/02 05:15:56;;;;;;;18.45;9.15;;;15.80;99.90;;;;;;4915356;29;20878;-86
2023/08/02 05:18:21;;;;;;;18.50;9.17;;;15.80;99.90;;;;;;4930325;28;20495;-89
2023/08/02 05:20:47;;;;;;;17.23;9.32;;;15.90;99.90;;;;;;4950125;28;20496;-87
2023/08/02 05:23:13;;;;;;;16.98;9.00;;;15.80;99.90;;;;;;4934822;28;20972;-87
2023/08/02 05:25:39;;;;;;;18.40;9.33;;;15.90;99.90;;;;;;4949740;28;20416;-88
2023/08/02 05:28:04;;;;;;;15.70;9.23;;;15.90;99.90;;;;;;4950449;28;20788;-87
2023/08/02 05:30:32;;;;;;;18.93;9.63;;;15.90;99.90;;;;;;4928981;29;20439;-86
2023/08/02 05:32:58;;;;;;;16.70;9.53;;;16.30;99.90;;;;;;4930582;29;20453;-88
2023/08/02 05:35:25;;;;;;;17.20;8.80;;;16.20;99.90;;;;;;4915334;29;20417;-87
2023/08/02 05:37:51;;;;;;;16.42;8.73;;;16.10;99.90;;;;;;4943800;28;20588;-89
2023/08/02 05:40:17;;;;;;;15.15;9.50;;;16.20;99.90;;;;;;4934535;28;20478;-87
2023/08/02 05:42:43;;;;;;;16.92;9.82;;;16.20;99.90;;;;;;4933636;28;20416;-87
2023/08/02 05:45:10;;;;;;;16.37;9.30;;;16.20;99.90;;;;;;4934519;28;20416;-88
2023/08/02 05:47:35;;;;;;;17.48;9.35;;;16.20;99.90;;;;;;4934076;28;20829;-87
2023/08/02 05:50:01;;;;;;;15.40;9.30;;;16.20;99.90;;;;;;4933953;28;20511;-88
2023/08/02 05:52:27;;;;;;;17.17;8.60;;;16.20;99.90;;;;;;4949871;28;20503;-87
2023/08/02 05:54:52;;;;;;;15.50;8.03;;;16.20;99.90;;;;;;4934049;28;21091;-88
2023/08/02 05:57:18;;;;;;;16.63;9.02;;;16.20;99.90;;;;;;4934009;28;20780;-88
2023/08/02 05:59:44;;;;;;;18.37;9.53;;;16.30;99.90;;;;;;4949939;28;20412;-88
2023/08/02 06:02:09;;;;;;;17.98;9.20;;;16.30;99.90;;;;;;4950116;28;20788;-88
2023/08/02 06:04:38;;;;;;;15.87;9.27;;;16.30;99.90;;;;;;4949511;28;20444;-87
2023/08/02 06:07:04;;;;;;;14.13;9.05;;;16.30;99.90;;;;;;4934287;28;20487;-87
2023/08/02 06:09:30;;;;;;;17.40;10.32;;;16.40;99.90;;;;;;4949365;28;20436;-88
2023/08/02 06:11:56;;;;;;;18.80;10.43;;;16.50;99.90;;;;;;4949749;28;20416;-86
2023/08/02 06:14:21;;;;;;;18.13;10.77;;;16.60;99.90;;;;;;4949803;28;20899;-88
2023/08/02 06:16:47;;;;;;;18.15;10.43;;;16.60;99.90;;;;;;4933167;28;20415;-88
2023/08/02 06:19:13;;;;;;;16.40;10.37;;;16.60;99.90;;;;;;4934097;28;20407;-87
2023/08/02 06:21:38;;;;;;;15.70;10.57;;;16.70;99.90;;;;;;4924046;29;20406;-87
2023/08/02 06:24:04;;;;;;;20.30;11.27;;;16.70;99.90;;;;;;4915803;29;20422;-86
2023/08/02 06:26:30;;;;;;;17.33;10.20;;;16.70;99.90;;;;;;4930211;29;20501;-87
2023/08/02 06:28:56;;;;;;;15.77;10.55;;;16.80;99.90;;;;;;4914875;28;20969;-86
2023/08/02 06:31:22;;;;;;;16.38;10.23;;;16.80;99.90;;;;;;4933868;28;20491;-87
2023/08/02 06:33:47;;;;;;;16.33;9.80;;;16.90;99.90;;;;;;4933092;28;20416;-87
2023/08/02 06:36:13;;;;;;;16.45;9.82;;;16.90;99.90;;;;;;4933153;28;20412;-87
2023/08/02 06:38:39;;;;;;;16.92;9.40;;;16.90;99.90;;;;;;4949603;28;20474;-86
2023/08/02 06:41:05;;;;;;;15.77;10.40;;;16.90;99.90;;;;;;4954057;28;20455;-87
2023/08/02 06:43:31;;;;;;;17.98;10.90;;;17.10;99.90;;;;;;4937132;28;20441;-86
2023/08/02 06:45:57;;;;;;;17.15;10.85;;;16.90;99.90;;;;;;4938098;28;20503;-90
2023/08/02 06:48:24;;;;;;;15.40;10.32;;;17.00;99.90;;;;;;4937380;28;20408;-87
2023/08/02 06:50:51;;;;;;;17.25;10.57;;;17.00;99.90;;;;;;4937194;28;20412;-88
2023/08/02 06:53:17;;;;;;;15.77;10.00;;;16.80;99.90;;;;;;4937852;28;20463;-89
2023/08/02 06:55:43;;;;;;;15.25;9.98;;;17.00;99.90;;;;;;4953865;28;20771;-88
2023/08/02 06:58:09;;;;;;;15.37;9.67;;;17.00;99.90;;;;;;4938058;28;20498;-88
2023/08/02 07:00:35;;;;;;;16.60;9.82;;;17.10;99.90;;;;;;4937491;28;20487;-88
2023/08/02 07:03:04;;;;;;;15.60;8.97;;;17.10;99.90;;;;;;4937483;28;20407;-88
2023/08/02 07:05:30;;;;;;;16.07;9.00;;;17.00;99.90;;;;;;4937126;28;20753;-88
2023/08/02 07:07:57;;;;;;;14.10;9.07;;;17.10;99.90;;;;;;4936776;28;20927;-88
2023/08/02 07:10:24;;;;;;;14.52;8.50;;;17.00;99.90;;;;;;4937288;28;20450;-87
2023/08/02 07:12:50;;;;;;;13.07;9.10;;;17.10;99.90;;;;;;4952955;28;20554;-87
2023/08/02 07:15:16;;;;;;;14.80;8.30;;;17.20;99.90;;;;;;4937175;28;20870;-88
2023/08/02 07:17:44;;;;;;;13.15;8.05;;;17.20;99.90;;;;;;4952477;28;20419;-89
2023/08/02 07:20:13;;;;;;;12.87;7.70;;;17.50;99.90;;;;;;4937515;28;20982;-89
2023/08/02 07:22:39;;;;;;;13.02;8.10;;;17.20;99.90;;;;;;4936306;28;20526;-88
2023/08/02 07:25:05;;;;;;;12.57;7.80;;;17.40;99.90;;;;;;4937606;28;20768;-87
2023/08/02 07:27:31;;;;;;;14.70;7.88;;;17.20;99.90;;;;;;4936659;28;20435;-87
2023/08/02 07:29:57;;;;;;;13.03;7.30;;;17.20;99.90;;;;;;4952386;28;20915;-87
2023/08/02 07:32:23;;;;;;;13.82;7.70;;;17.10;99.90;;;;;;4936573;28;20503;-87
2023/08/02 07:34:49;;;;;;;12.82;6.75;;;17.10;99.90;;;;;;4936255;28;20415;-88
2023/08/02 07:37:20;;;;;;;13.00;6.75;;;17.10;99.90;;;;;;4953130;28;20771;-87
2023/08/02 07:39:45;;;;;;;11.73;6.40;;;17.20;99.90;;;;;;4936455;28;20420;-87
2023/08/02 07:42:11;;;;;;;12.00;6.75;;;17.30;99.90;;;;;;4953270;28;20417;-88
2023/08/02 07:44:37;;;;;;;12.03;6.10;;;17.10;99.90;;;;;;4937183;28;20415;-87
2023/08/02 07:47:04;;;;;;;13.67;6.50;;;17.00;99.90;;;;;;4937023;28;20423;-88
2023/08/02 07:49:31;;;;;;;11.75;6.55;;;17.10;99.90;;;;;;4952283;28;20525;-89
2023/08/02 07:51:57;;;;;;;11.23;6.55;;;17.10;99.90;;;;;;4951642;28;20419;-87
2023/08/02 07:54:23;;;;;;;10.88;6.40;;;17.00;99.90;;;;;;4952936;28;20464;-88
2023/08/02 07:56:48;;;;;;;11.17;6.33;;;17.40;99.90;;;;;;4935946;28;20498;-87
2023/08/02 07:59:14;;;;;;;11.13;6.80;;;16.90;99.90;;;;;;4952970;28;20471;-89
2023/08/02 08:01:43;;;;;;;11.25;5.95;;;17.50;99.90;;;;;;4936551;28;20416;-87
2023/08/02 08:04:09;;;;;;;12.52;6.90;;;16.90;99.90;;;;;;4948297;28;20483;-86
2023/08/02 08:06:35;;;;;;;10.88;6.75;;;16.90;99.90;;;;;;4936223;28;20429;-87
2023/08/02 08:09:01;;;;;;;13.60;6.85;;;16.80;99.90;;;;;;4951594;28;20935;-88
2023/08/02 08:11:28;;;;;;;10.00;6.03;;;16.80;99.90;;;;;;4952835;28;20412;-86
2023/08/02 08:13:53;;;;;;;11.90;6.57;;;17.00;99.90;;;;;;4951346;28;20423;-88
2023/08/02 08:16:19;;;;;;;11.93;6.55;;;16.70;99.90;;;;;;4952663;28;20416;-87
2023/08/02 08:18:45;;;;;;;10.50;6.20;;;16.50;99.90;;;;;;4935803;28;20409;-87
2023/08/02 08:21:10;;;;;;;13.32;6.35;;;16.80;99.90;;;;;;4936714;28;20502;-90
2023/08/02 08:23:36;;;;;;;14.05;7.32;;;16.40;99.90;;;;;;4953285;28;20507;-91
2023/08/02 08:26:02;;;;;;;13.40;6.47;;;16.30;99.90;;;;;;4936836;28;20397;-90
2023/08/02 08:28:28;;;;;;;13.73;7.20;;;16.20;99.90;;;;;;4953373;28;20507;-90
2023/08/02 08:31:04;;;;;;;11.30;6.70;;;16.20;99.90;;;;;;4935889;28;20412;-89
2023/08/02 08:33:31;;;;;;;14.95;7.40;;;16.00;99.90;;;;;;4936991;28;20427;-87
2023/08/02 08:35:57;;;;;;;12.75;7.15;;;16.00;99.90;;;;;;4935910;28;20503;-90
2023/08/02 08:38:23;;;;;;;13.43;6.88;;;16.00;99.90;;;;;;4953054;28;20408;-89
2023/08/02 08:40:52;;;;;;;11.88;6.70;;;15.80;99.90;;;;;;4952770;28;20896;-88
2023/08/02 08:43:19;;;;;;;12.18;7.40;;;15.80;99.90;;;;;;4936372;28;20951;-90
2023/08/02 08:45:46;;;;;;;14.17;8.30;;;15.90;99.90;;;;;;4937336;28;20462;-90
2023/08/02 08:48:12;;;;;;;17.15;9.18;;;15.80;99.90;;;;;;4936470;28;20482;-90
2023/08/02 08:50:42;;;;;;;17.40;9.35;;;15.80;99.90;;;;;;4936623;28;20435;-91
2023/08/02 08:53:14;;;;;;;14.15;8.48;;;15.90;99.90;;;;;;4936605;28;20555;-90
2023/08/02 08:55:40;;;;;;;17.38;9.68;;;15.90;99.90;;;;;;4937171;28;20463;-91
2023/08/02 08:58:07;;;;;;;17.17;9.30;;;15.90;99.90;;;;;;4936298;28;20498;-90
2023/08/02 09:00:33;;;;;;;15.27;8.25;;;15.90;99.90;;;;;;4952096;28;20408;-91
2023/08/02 09:03:00;;;;;;;15.93;8.98;;;16.20;99.90;;;;;;4935680;28;20415;-89
2023/08/02 09:05:30;;;;;;;13.10;7.68;;;15.80;99.90;;;;;;4935801;28;20404;-90
2023/08/02 09:07:58;;;;;;;13.15;7.68;;;16.10;99.90;;;;;;4937534;28;20491;-89
2023/08/02 09:10:24;;;;;;;12.65;7.70;;;15.80;99.90;;;;;;4935929;28;20436;-89
2023/08/02 09:12:49;;;;;;;15.17;7.73;;;15.80;99.90;;;;;;4952618;28;20452;-91
2023/08/02 09:15:15;;;;;;;14.45;8.00;;;15.80;99.90;;;;;;4929429;28;20422;-88
2023/08/02 09:17:49;;;;;;;11.85;7.93;;;15.80;99.90;;;;;;4924001;28;20481;-91
2023/08/02 09:20:16;;;;;;;14.48;8.27;;;15.80;99.90;;;;;;4929998;28;20420;-92
2023/08/02 09:22:42;;;;;;;13.88;8.98;;;15.90;99.90;;;;;;4935985;28;20408;-91
2023/08/02 09:25:22;;;;;;;11.03;8.93;;;15.90;99.90;;;;;;4937199;28;20478;-91
2023/08/02 09:27:49;;;;;;;14.30;10.00;;;15.90;99.90;;;;;;4933261;28;20495;-89
2023/08/02 09:30:30;;;;;;;12.43;9.90;;;16.00;99.90;;;;;;4933371;28;20440;-92
2023/08/02 09:33:05;;;;;;;12.32;10.38;;;16.00;99.90;;;;;;4952788;28;20469;-91
2023/08/02 09:35:34;;;;;;;11.85;9.75;;;16.00;99.90;;;;;;4936052;28;20420;-93
2023/08/02 09:38:00;;;;;;;15.90;11.95;;;15.90;99.90;;;;;;4936874;28;20475;-89
2023/08/02 09:40:37;;;;;;;15.23;11.57;;;16.10;99.90;;;;;;4950493;28;20788;-92
2023/08/02 09:43:04;;;;;;;13.75;11.23;;;16.20;99.90;;;;;;4952602;28;20416;-90
2023/08/02 09:45:33;;;;;;;14.20;10.32;;;16.20;99.90;;;;;;4951356;28;20416;-91
2023/08/02 09:47:59;;;;;;;13.23;9.90;;;16.20;99.90;;;;;;4935371;28;20412;-89
2023/08/02 09:50:25;;;;;;;13.07;10.90;;;16.20;99.90;;;;;;4936511;28;21250;-91
2023/08/02 09:52:51;;;;;;;14.43;10.65;;;16.50;99.90;;;;;;4935523;28;20511;-90
2023/08/02 09:55:17;;;;;;;11.25;9.10;;;16.30;99.90;;;;;;4936642;28;20409;-91
2023/08/02 09:57:45;;;;;;;12.67;11.37;;;16.20;99.90;;;;;;4934839;28;20444;-91
2023/08/02 10:00:12;;;;;;;15.50;11.00;;;16.30;99.90;;;;;;4936021;28;20416;-91
2023/08/02 10:02:38;;;;;;;15.75;12.35;;;16.30;99.90;;;;;;4936313;28;20414;-91
2023/08/02 10:05:07;;;;;;;14.18;10.80;;;16.40;99.90;;;;;;4935610;28;20415;-91
2023/08/02 10:07:38;;;;;;;13.95;11.15;;;16.30;99.90;;;;;;4936258;28;20420;-91
2023/08/02 10:10:18;;;;;;;15.23;11.70;;;16.60;99.90;;;;;;4935493;28;20439;-92
2023/08/02 10:12:51;;;;;;;15.05;12.15;;;16.40;99.90;;;;;;4935001;28;20716;-90
2023/08/02 10:15:17;;;;;;;16.27;12.23;;;16.50;99.90;;;;;;4935108;28;20861;-90
2023/08/02 10:17:43;;;;;;;15.20;12.30;;;16.50;99.90;;;;;;4935011;28;20737;-91
2023/08/02 10:20:11;;;;;;;11.45;9.80;;;16.40;99.90;;;;;;4934701;28;20490;-90
2023/08/02 10:22:39;;;;;;;12.17;10.37;;;16.40;99.90;;;;;;4933955;28;20749;-90
2023/08/02 10:25:06;;;;;;;14.90;10.57;;;16.40;99.90;;;;;;4934130;28;20448;-90
2023/08/02 10:27:32;;;;;;;13.45;11.13;;;16.40;99.90;;;;;;4933335;28;20456;-91
2023/08/02 10:29:58;;;;;;;10.88;9.75;;;16.40;99.90;;;;;;4934323;28;20498;-92
2023/08/02 10:32:23;;;;;;;13.13;10.77;;;16.00;99.90;;;;;;4930622;28;20408;-90
2023/08/02 10:34:51;;;;;;;12.07;9.07;;;16.50;99.90;;;;;;4945833;29;20460;-91
2023/08/02 10:37:18;;;;;;;11.27;9.57;;;16.50;99.90;;;;;;4914216;29;20420;-90
2023/08/02 10:39:50;;;;;;;8.53;7.50;;;16.50;99.90;;;;;;4929868;29;20481;-92
2023/08/02 10:42:29;;;;;;;10.15;8.07;;;16.50;99.90;;;;;;4930738;29;20425;-90
2023/08/02 10:44:55;;;;;;;8.25;6.88;;;16.80;99.90;;;;;;4918534;28;20446;-91
2023/08/02 10:47:32;;;;;;;10.52;8.15;;;16.50;99.90;;;;;;4934727;28;20927;-89
2023/08/02 10:49:59;;;;;;;10.20;7.43;;;16.50;99.90;;;;;;4949944;28;20432;-91
2023/08/02 10:52:36;;;;;;;10.63;7.80;;;16.40;99.90;;;;;;4934644;28;20496;-91
2023/08/02 10:55:14;;;;;;;6.17;5.07;;;16.90;99.90;;;;;;4962366;28;20431;-92
2023/08/02 10:58:05;;;;;;;6.30;5.68;;;16.50;99.90;;;;;;4949643;28;20511;-91
2023/08/02 11:00:32;;;;;;;9.20;7.15;;;16.50;99.90;;;;;;4926951;29;20520;-91
2023/08/02 11:02:59;;;;;;;9.63;7.47;;;16.50;99.90;;;;;;4930890;29;20465;-90
2023/08/02 11:05:45;;;;;;;6.85;6.00;;;16.90;99.90;;;;;;4930824;29;20422;-90
2023/08/02 11:08:11;;;;;;;6.88;5.10;;;16.60;99.90;;;;;;4916575;29;20436;-92
2023/08/02 11:10:54;;;;;;;8.52;6.32;;;16.60;99.90;;;;;;4915947;29;20509;-90
2023/08/02 11:13:21;;;;;;;5.82;4.70;;;16.60;99.90;;;;;;4917254;29;20424;-91
2023/08/02 11:15:58;;;;;;;5.22;4.72;;;16.60;99.90;;;;;;4930988;29;20414;-90
2023/08/02 11:18:25;;;;;;;4.35;2.95;;;16.60;99.90;;;;;;4931942;28;20447;-93
2023/08/02 11:20:50;;;;;;;4.85;3.85;;;16.60;99.90;;;;;;4933188;28;20396;-91
2023/08/02 11:23:25;;;;;;;3.25;2.95;;;16.80;99.90;;;;;;4934784;28;20404;-92
2023/08/02 11:26:05;;;;;;;5.40;4.27;;;16.60;99.90;;;;;;4925039;29;20994;-91
2023/08/02 11:28:52;;;;;;;4.57;4.18;;;16.70;99.90;;;;;;4952496;28;20428;-92
2023/08/02 11:31:18;;;;;;;5.32;4.82;;;16.80;99.90;;;;;;4938283;28;20486;-93
2023/08/02 11:33:44;;;;;;;4.50;3.85;;;16.90;99.90;;;;;;4939284;28;20435;-90
2023/08/02 11:36:11;;;;;;;4.53;4.13;;;16.90;99.90;;;;;;4938001;28;20879;-91
2023/08/02 11:38:37;;;;;;;3.83;3.42;;;17.10;99.90;;;;;;4938946;28;20970;-90
2023/08/02 11:41:15;;;;;;;5.35;4.85;;;17.20;99.90;;;;;;4937983;28;20892;-90
2023/08/02 11:43:42;;;;;;;4.88;4.47;;;17.60;99.90;;;;;;4954694;28;20517;-91
2023/08/02 11:46:23;;;;;;;3.65;3.30;;;17.70;99.90;;;;;;4937954;28;20487;-89
2023/08/02 11:48:50;;;;;;;2.60;2.40;;;18.30;99.90;;;;;;4937657;28;21094;-93
2023/08/02 11:51:19;;;;;;;2.70;2.50;;;18.10;99.90;;;;;;4954480;28;20416;-90
2023/08/02 11:53:49;;;;;;;3.00;2.50;;;18.40;99.90;;;;;;4933854;29;20425;-90
2023/08/02 11:56:14;;;;;;;2.55;2.35;;;18.80;99.90;;;;;;4919688;28;20430;-89
2023/08/02 11:58:42;;;;;;;2.90;2.30;;;19.40;99.90;;;;;;4934323;29;20465;-89
2023/08/02 12:01:08;;;;;;;2.40;1.90;;;19.30;99.90;;;;;;4935041;29;20425;-90
2023/08/02 12:03:34;;;;;;;2.80;2.05;;;19.30;99.90;;;;;;4921188;28;20411;-91
2023/08/02 12:06:01;;;;;;;2.58;2.15;;;19.80;99.90;;;;;;4969302;28;20413;-91
2023/08/02 12:08:27;;;;;;;3.00;2.17;;;19.40;99.90;;;;;;4937854;28;20977;-91
2023/08/02 12:10:53;;;;;;;2.63;2.33;;;19.60;99.90;;;;;;4936981;28;20444;-91
2023/08/02 12:13:19;;;;;;;3.33;2.53;;;19.40;99.90;;;;;;4938326;28;20416;-90
2023/08/02 12:16:02;;;;;;;3.55;3.25;;;19.60;99.90;;;;;;4937158;28;20423;-92
2023/08/02 12:18:27;;;;;;;3.40;3.10;;;19.50;99.90;;;;;;4969218;28;20416;-91
2023/08/02 12:20:53;;;;;;;2.80;2.60;;;19.40;99.90;;;;;;4937056;28;20851;-92
2023/08/02 12:23:33;;;;;;;3.60;3.30;;;19.50;99.90;;;;;;4968363;28;20419;-91
2023/08/02 12:25:59;;;;;;;3.80;3.50;;;19.30;99.90;;;;;;4918350;29;20497;-89
2023/08/02 12:28:25;;;;;;;3.60;3.30;;;19.30;99.90;;;;;;4917313;29;20504;-88
2023/08/02 12:31:19;;;;;;;5.70;5.20;;;19.40;99.90;;;;;;4934596;29;21116;-91
2023/08/02 12:33:45;;;;;;;5.70;5.17;;;19.40;99.90;;;;;;4917854;29;20817;-92
2023/08/02 12:36:22;;;;;;;5.68;4.75;;;19.60;99.90;;;;;;4917866;29;21260;-91
2023/08/02 12:38:48;;;;;;;6.25;5.65;;;19.60;99.90;;;;;;4918016;29;20493;-91